sensor_id;sensor_type;location;lat;lon;timestamp;temperature;humidity
68556;HTU21D;55544;51.032;5.866;2023-04-01T00:00:27;11.10;88.27
68556;HTU21D;55544;51.032;5.866;2023-04-01T00:02:53;11.03;88.68
68556;HTU21D;55544;51.032;5.866;2023-04-01T00:05:19;11.04;88.35
68556;HTU21D;55544;51.032;5.866;2023-04-01T00:07:45;11.02;88.57
68556;HTU21D;55544;51.032;5.866;2023-04-01T00:10:13;11.01;88.69
68556;HTU21D;55544;51.032;5.866;2023-04-01T00:12:39;11.10;88.16
68556;HTU21D;55544;51.032;5.866;2023-04-01T00:15:07;11.04;88.44
68556;HTU21D;55544;51.032;5.866;2023-04-01T00:17:34;10.96;88.77
68556;HTU21D;55544;51.032;5.866;2023-04-01T00:20:00;10.97;88.70
68556;HTU21D;55544;51.032;5.866;2023-04-01T00:22:26;11.01;88.47
68556;HTU21D;55544;51.032;5.866;2023-04-01T00:24:53;11.04;88.18
68556;HTU21D;55544;51.032;5.866;2023-04-01T00:27:19;11.04;88.49
68556;HTU21D;55544;51.032;5.866;2023-04-01T00:29:46;11.07;87.99
68556;HTU21D;55544;51.032;5.866;2023-04-01T00:32:14;11.10;88.05
68556;HTU21D;55544;51.032;5.866;2023-04-01T00:34:40;11.09;88.15
68556;HTU21D;55544;51.032;5.866;2023-04-01T00:37:07;11.04;88.24
68556;HTU21D;55544;51.032;5.866;2023-04-01T00:39:34;10.95;88.15
68556;HTU21D;55544;51.032;5.866;2023-04-01T00:42:02;11.07;88.18
68556;HTU21D;55544;51.032;5.866;2023-04-01T00:44:31;11.11;87.89
68556;HTU21D;55544;51.032;5.866;2023-04-01T00:46:59;11.01;88.36
68556;HTU21D;55544;51.032;5.866;2023-04-01T00:49:30;11.01;88.48
68556;HTU21D;55544;51.032;5.866;2023-04-01T00:52:00;10.99;88.51
68556;HTU21D;55544;51.032;5.866;2023-04-01T00:54:28;11.01;88.59
68556;HTU21D;55544;51.032;5.866;2023-04-01T00:57:12;11.01;88.51
68556;HTU21D;55544;51.032;5.866;2023-04-01T00:59:48;11.02;88.41
68556;HTU21D;55544;51.032;5.866;2023-04-01T01:02:16;10.99;88.67
68556;HTU21D;55544;51.032;5.866;2023-04-01T01:04:42;10.95;88.89
68556;HTU21D;55544;51.032;5.866;2023-04-01T01:13:22;10.98;88.95
68556;HTU21D;55544;51.032;5.866;2023-04-01T01:21:26;11.04;88.54
68556;HTU21D;55544;51.032;5.866;2023-04-01T01:34:36;10.95;88.83
68556;HTU21D;55544;51.032;5.866;2023-04-01T01:37:13;10.90;89.03
68556;HTU21D;55544;51.032;5.866;2023-04-01T01:39:43;10.87;89.09
68556;HTU21D;55544;51.032;5.866;2023-04-01T01:42:15;10.88;89.15
68556;HTU21D;55544;51.032;5.866;2023-04-01T01:44:45;10.93;88.92
68556;HTU21D;55544;51.032;5.866;2023-04-01T01:47:14;10.83;89.34
68556;HTU21D;55544;51.032;5.866;2023-04-01T01:49:43;10.83;89.32
68556;HTU21D;55544;51.032;5.866;2023-04-01T01:52:12;10.83;89.41
68556;HTU21D;55544;51.032;5.866;2023-04-01T01:57:17;10.82;89.31
68556;HTU21D;55544;51.032;5.866;2023-04-01T01:59:48;10.81;89.50
68556;HTU21D;55544;51.032;5.866;2023-04-01T02:02:25;10.79;89.65
68556;HTU21D;55544;51.032;5.866;2023-04-01T02:04:52;10.78;89.76
68556;HTU21D;55544;51.032;5.866;2023-04-01T02:07:26;10.83;89.62
68556;HTU21D;55544;51.032;5.866;2023-04-01T02:09:54;10.72;90.12
68556;HTU21D;55544;51.032;5.866;2023-04-01T02:12:23;10.74;89.86
68556;HTU21D;55544;51.032;5.866;2023-04-01T02:15:03;10.78;90.19
68556;HTU21D;55544;51.032;5.866;2023-04-01T02:17:33;10.71;90.22
68556;HTU21D;55544;51.032;5.866;2023-04-01T02:20:28;10.73;90.19
68556;HTU21D;55544;51.032;5.866;2023-04-01T02:22:56;10.75;89.92
68556;HTU21D;55544;51.032;5.866;2023-04-01T02:25:34;10.79;89.68
68556;HTU21D;55544;51.032;5.866;2023-04-01T02:28:04;10.78;89.75
68556;HTU21D;55544;51.032;5.866;2023-04-01T02:30:34;10.83;89.70
68556;HTU21D;55544;51.032;5.866;2023-04-01T02:33:02;10.81;89.80
68556;HTU21D;55544;51.032;5.866;2023-04-01T02:35:30;10.86;89.63
68556;HTU21D;55544;51.032;5.866;2023-04-01T02:37:57;10.78;89.78
68556;HTU21D;55544;51.032;5.866;2023-04-01T02:40:24;10.82;89.68
68556;HTU21D;55544;51.032;5.866;2023-04-01T02:42:50;10.78;90.05
68556;HTU21D;55544;51.032;5.866;2023-04-01T02:45:16;10.80;89.82
68556;HTU21D;55544;51.032;5.866;2023-04-01T02:47:42;10.78;89.76
68556;HTU21D;55544;51.032;5.866;2023-04-01T02:50:08;10.89;89.32
68556;HTU21D;55544;51.032;5.866;2023-04-01T02:52:34;10.89;89.41
68556;HTU21D;55544;51.032;5.866;2023-04-01T02:55:02;10.89;89.16
68556;HTU21D;55544;51.032;5.866;2023-04-01T02:57:28;10.86;89.45
68556;HTU21D;55544;51.032;5.866;2023-04-01T02:59:54;10.90;89.42
68556;HTU21D;55544;51.032;5.866;2023-04-01T03:02:20;10.81;89.60
68556;HTU21D;55544;51.032;5.866;2023-04-01T03:04:46;10.79;89.99
68556;HTU21D;55544;51.032;5.866;2023-04-01T03:07:12;10.83;89.79
68556;HTU21D;55544;51.032;5.866;2023-04-01T03:09:38;10.92;89.43
68556;HTU21D;55544;51.032;5.866;2023-04-01T03:12:04;10.96;89.48
68556;HTU21D;55544;51.032;5.866;2023-04-01T03:14:35;10.95;89.53
68556;HTU21D;55544;51.032;5.866;2023-04-01T03:17:01;10.81;90.08
68556;HTU21D;55544;51.032;5.866;2023-04-01T03:19:27;10.87;89.90
68556;HTU21D;55544;51.032;5.866;2023-04-01T03:21:52;10.87;89.89
68556;HTU21D;55544;51.032;5.866;2023-04-01T03:24:18;10.79;90.12
68556;HTU21D;55544;51.032;5.866;2023-04-01T03:26:44;10.88;89.86
68556;HTU21D;55544;51.032;5.866;2023-04-01T03:29:09;10.90;89.80
68556;HTU21D;55544;51.032;5.866;2023-04-01T03:31:35;10.81;90.15
68556;HTU21D;55544;51.032;5.866;2023-04-01T03:34:01;10.85;89.99
68556;HTU21D;55544;51.032;5.866;2023-04-01T03:36:27;10.85;89.53
68556;HTU21D;55544;51.032;5.866;2023-04-01T03:38:52;10.78;90.18
68556;HTU21D;55544;51.032;5.866;2023-04-01T03:41:25;10.84;90.16
68556;HTU21D;55544;51.032;5.866;2023-04-01T03:43:53;10.85;89.94
68556;HTU21D;55544;51.032;5.866;2023-04-01T03:46:19;10.82;90.06
68556;HTU21D;55544;51.032;5.866;2023-04-01T03:48:46;10.93;89.54
68556;HTU21D;55544;51.032;5.866;2023-04-01T03:51:12;10.81;90.08
68556;HTU21D;55544;51.032;5.866;2023-04-01T03:53:37;10.83;89.93
68556;HTU21D;55544;51.032;5.866;2023-04-01T03:56:06;10.78;89.72
68556;HTU21D;55544;51.032;5.866;2023-04-01T03:58:34;10.79;89.68
68556;HTU21D;55544;51.032;5.866;2023-04-01T04:01:00;10.79;89.76
68556;HTU21D;55544;51.032;5.866;2023-04-01T04:03:26;10.78;90.08
68556;HTU21D;55544;51.032;5.866;2023-04-01T04:05:52;10.80;89.96
68556;HTU21D;55544;51.032;5.866;2023-04-01T04:08:18;10.74;89.76
68556;HTU21D;55544;51.032;5.866;2023-04-01T04:10:44;10.77;89.86
68556;HTU21D;55544;51.032;5.866;2023-04-01T04:13:10;10.79;89.74
68556;HTU21D;55544;51.032;5.866;2023-04-01T04:15:41;10.75;89.71
68556;HTU21D;55544;51.032;5.866;2023-04-01T04:18:07;10.73;89.72
68556;HTU21D;55544;51.032;5.866;2023-04-01T04:20:33;10.64;90.20
68556;HTU21D;55544;51.032;5.866;2023-04-01T04:23:00;10.77;89.54
68556;HTU21D;55544;51.032;5.866;2023-04-01T04:25:25;10.80;89.54
68556;HTU21D;55544;51.032;5.866;2023-04-01T04:27:51;10.62;90.27
68556;HTU21D;55544;51.032;5.866;2023-04-01T04:30:17;10.52;90.77
68556;HTU21D;55544;51.032;5.866;2023-04-01T04:32:43;10.56;90.68
68556;HTU21D;55544;51.032;5.866;2023-04-01T04:35:10;10.66;90.59
68556;HTU21D;55544;51.032;5.866;2023-04-01T04:37:36;10.64;90.28
68556;HTU21D;55544;51.032;5.866;2023-04-01T04:40:02;10.56;90.94
68556;HTU21D;55544;51.032;5.866;2023-04-01T04:42:29;10.63;90.64
68556;HTU21D;55544;51.032;5.866;2023-04-01T04:45:00;10.68;90.56
68556;HTU21D;55544;51.032;5.866;2023-04-01T04:47:26;10.72;90.28
68556;HTU21D;55544;51.032;5.866;2023-04-01T04:49:52;10.72;90.26
68556;HTU21D;55544;51.032;5.866;2023-04-01T04:52:18;10.70;90.45
68556;HTU21D;55544;51.032;5.866;2023-04-01T04:54:43;10.66;90.59
68556;HTU21D;55544;51.032;5.866;2023-04-01T04:57:09;10.65;90.67
68556;HTU21D;55544;51.032;5.866;2023-04-01T04:59:43;10.67;90.68
68556;HTU21D;55544;51.032;5.866;2023-04-01T05:02:16;10.58;90.95
68556;HTU21D;55544;51.032;5.866;2023-04-01T05:04:41;10.56;90.87
68556;HTU21D;55544;51.032;5.866;2023-04-01T05:07:09;10.62;90.79
68556;HTU21D;55544;51.032;5.866;2023-04-01T05:09:35;10.58;90.61
68556;HTU21D;55544;51.032;5.866;2023-04-01T05:12:01;10.64;90.57
68556;HTU21D;55544;51.032;5.866;2023-04-01T05:14:35;10.52;91.08
68556;HTU21D;55544;51.032;5.866;2023-04-01T05:17:11;10.65;90.77
68556;HTU21D;55544;51.032;5.866;2023-04-01T05:19:38;10.60;90.73
68556;HTU21D;55544;51.032;5.866;2023-04-01T05:22:04;10.55;90.86
68556;HTU21D;55544;51.032;5.866;2023-04-01T05:24:31;10.54;91.24
68556;HTU21D;55544;51.032;5.866;2023-04-01T05:26:58;10.52;91.09
68556;HTU21D;55544;51.032;5.866;2023-04-01T05:29:25;10.70;90.31
68556;HTU21D;55544;51.032;5.866;2023-04-01T05:31:57;10.64;90.60
68556;HTU21D;55544;51.032;5.866;2023-04-01T05:34:22;10.71;90.27
68556;HTU21D;55544;51.032;5.866;2023-04-01T05:36:48;10.70;90.09
68556;HTU21D;55544;51.032;5.866;2023-04-01T05:39:14;10.65;90.34
68556;HTU21D;55544;51.032;5.866;2023-04-01T05:41:40;10.73;90.05
68556;HTU21D;55544;51.032;5.866;2023-04-01T05:44:06;10.68;90.02
68556;HTU21D;55544;51.032;5.866;2023-04-01T05:46:54;10.53;90.80
68556;HTU21D;55544;51.032;5.866;2023-04-01T05:49:22;10.56;90.95
68556;HTU21D;55544;51.032;5.866;2023-04-01T05:51:49;10.56;90.63
68556;HTU21D;55544;51.032;5.866;2023-04-01T05:54:17;10.63;90.52
68556;HTU21D;55544;51.032;5.866;2023-04-01T05:56:44;10.66;90.28
68556;HTU21D;55544;51.032;5.866;2023-04-01T05:59:11;10.66;90.49
68556;HTU21D;55544;51.032;5.866;2023-04-01T06:01:38;10.70;90.21
68556;HTU21D;55544;51.032;5.866;2023-04-01T06:04:04;10.69;90.31
68556;HTU21D;55544;51.032;5.866;2023-04-01T06:06:31;10.67;90.18
68556;HTU21D;55544;51.032;5.866;2023-04-01T06:09:17;10.50;90.83
68556;HTU21D;55544;51.032;5.866;2023-04-01T06:18:00;10.62;90.78
68556;HTU21D;55544;51.032;5.866;2023-04-01T06:28:39;10.66;90.72
68556;HTU21D;55544;51.032;5.866;2023-04-01T06:34:19;10.58;91.22
68556;HTU21D;55544;51.032;5.866;2023-04-01T06:42:12;10.59;91.08
68556;HTU21D;55544;51.032;5.866;2023-04-01T06:45:00;10.70;90.85
68556;HTU21D;55544;51.032;5.866;2023-04-01T06:51:19;10.57;91.02
68556;HTU21D;55544;51.032;5.866;2023-04-01T06:54:17;10.60;91.18
68556;HTU21D;55544;51.032;5.866;2023-04-01T06:57:16;10.58;91.06
68556;HTU21D;55544;51.032;5.866;2023-04-01T06:59:45;10.57;91.31
68556;HTU21D;55544;51.032;5.866;2023-04-01T07:02:22;10.52;91.63
68556;HTU21D;55544;51.032;5.866;2023-04-01T07:04:53;10.57;91.26
68556;HTU21D;55544;51.032;5.866;2023-04-01T07:10:34;10.59;91.31
68556;HTU21D;55544;51.032;5.866;2023-04-01T07:13:29;10.56;91.47
68556;HTU21D;55544;51.032;5.866;2023-04-01T07:21:40;10.54;91.79
68556;HTU21D;55544;51.032;5.866;2023-04-01T07:24:26;10.59;91.40
68556;HTU21D;55544;51.032;5.866;2023-04-01T07:27:02;10.57;91.49
68556;HTU21D;55544;51.032;5.866;2023-04-01T07:29:30;10.49;92.18
68556;HTU21D;55544;51.032;5.866;2023-04-01T07:46:22;10.67;90.94
68556;HTU21D;55544;51.032;5.866;2023-04-01T07:49:08;10.72;91.11
68556;HTU21D;55544;51.032;5.866;2023-04-01T07:51:44;10.68;91.13
68556;HTU21D;55544;51.032;5.866;2023-04-01T07:57:03;10.69;91.40
68556;HTU21D;55544;51.032;5.866;2023-04-01T07:59:56;10.67;91.56
68556;HTU21D;55544;51.032;5.866;2023-04-01T08:02:56;10.80;91.13
68556;HTU21D;55544;51.032;5.866;2023-04-01T08:05:34;10.77;91.33
68556;HTU21D;55544;51.032;5.866;2023-04-01T08:17:36;10.77;91.30
68556;HTU21D;55544;51.032;5.866;2023-04-01T08:23:12;10.74;91.24
68556;HTU21D;55544;51.032;5.866;2023-04-01T08:25:58;10.81;91.27
68556;HTU21D;55544;51.032;5.866;2023-04-01T08:31:13;10.94;91.16
68556;HTU21D;55544;51.032;5.866;2023-04-01T08:33:46;10.97;90.79
68556;HTU21D;55544;51.032;5.866;2023-04-01T08:36:17;10.90;90.97
68556;HTU21D;55544;51.032;5.866;2023-04-01T08:39:13;10.97;90.50
68556;HTU21D;55544;51.032;5.866;2023-04-01T08:56:43;11.00;90.41
68556;HTU21D;55544;51.032;5.866;2023-04-01T09:01:48;11.05;90.51
68556;HTU21D;55544;51.032;5.866;2023-04-01T09:10:25;11.01;90.35
68556;HTU21D;55544;51.032;5.866;2023-04-01T09:16:12;11.01;90.47
68556;HTU21D;55544;51.032;5.866;2023-04-01T09:29:26;11.11;89.60
68556;HTU21D;55544;51.032;5.866;2023-04-01T09:35:22;11.08;89.78
68556;HTU21D;55544;51.032;5.866;2023-04-01T09:47:03;11.32;88.89
68556;HTU21D;55544;51.032;5.866;2023-04-01T09:52:54;11.26;89.02
68556;HTU21D;55544;51.032;5.866;2023-04-01T10:01:57;11.25;88.77
68556;HTU21D;55544;51.032;5.866;2023-04-01T10:15:59;11.42;88.25
68556;HTU21D;55544;51.032;5.866;2023-04-01T10:21:49;11.39;87.51
68556;HTU21D;55544;51.032;5.866;2023-04-01T10:33:27;11.43;88.17
68556;HTU21D;55544;51.032;5.866;2023-04-01T10:54:17;11.63;88.44
68556;HTU21D;55544;51.032;5.866;2023-04-01T11:18:26;12.01;86.83
68556;HTU21D;55544;51.032;5.866;2023-04-01T11:26:52;11.85;86.75
68556;HTU21D;55544;51.032;5.866;2023-04-01T11:32:54;11.94;86.24
68556;HTU21D;55544;51.032;5.866;2023-04-01T11:43:47;12.04;86.53
68556;HTU21D;55544;51.032;5.866;2023-04-01T11:46:28;12.02;86.12
68556;HTU21D;55544;51.032;5.866;2023-04-01T11:49:17;11.99;85.97
68556;HTU21D;55544;51.032;5.866;2023-04-01T11:58:34;12.03;86.25
68556;HTU21D;55544;51.032;5.866;2023-04-01T12:03:59;12.04;85.72
68556;HTU21D;55544;51.032;5.866;2023-04-01T12:09:12;11.99;86.12
68556;HTU21D;55544;51.032;5.866;2023-04-01T12:34:57;12.12;87.22
68556;HTU21D;55544;51.032;5.866;2023-04-01T12:37:54;12.13;87.41
68556;HTU21D;55544;51.032;5.866;2023-04-01T12:40:48;12.17;87.45
68556;HTU21D;55544;51.032;5.866;2023-04-01T12:43:34;12.16;87.73
68556;HTU21D;55544;51.032;5.866;2023-04-01T12:51:48;12.31;87.15
68556;HTU21D;55544;51.032;5.866;2023-04-01T13:18:17;11.94;88.55
68556;HTU21D;55544;51.032;5.866;2023-04-01T13:21:30;12.08;87.76
68556;HTU21D;55544;51.032;5.866;2023-04-01T13:29:59;12.11;87.00
68556;HTU21D;55544;51.032;5.866;2023-04-01T13:32:35;12.04;86.55
68556;HTU21D;55544;51.032;5.866;2023-04-01T13:38:09;12.03;87.41
68556;HTU21D;55544;51.032;5.866;2023-04-01T13:40:48;12.03;87.15
68556;HTU21D;55544;51.032;5.866;2023-04-01T13:43:34;12.06;87.24
68556;HTU21D;55544;51.032;5.866;2023-04-01T13:57:20;12.05;86.51
68556;HTU21D;55544;51.032;5.866;2023-04-01T14:14:36;12.05;87.28
68556;HTU21D;55544;51.032;5.866;2023-04-01T14:22:54;12.08;87.12
68556;HTU21D;55544;51.032;5.866;2023-04-01T14:48:17;11.98;86.01
68556;HTU21D;55544;51.032;5.866;2023-04-01T14:50:49;11.92;86.48
68556;HTU21D;55544;51.032;5.866;2023-04-01T14:55:51;11.84;86.52
68556;HTU21D;55544;51.032;5.866;2023-04-01T14:58:19;11.82;87.01
68556;HTU21D;55544;51.032;5.866;2023-04-01T15:09:40;11.99;86.36
68556;HTU21D;55544;51.032;5.866;2023-04-01T15:12:26;11.93;85.88
68556;HTU21D;55544;51.032;5.866;2023-04-01T15:20:33;11.85;86.43
68556;HTU21D;55544;51.032;5.866;2023-04-01T15:23:23;11.94;86.19
68556;HTU21D;55544;51.032;5.866;2023-04-01T15:28:42;11.82;86.32
68556;HTU21D;55544;51.032;5.866;2023-04-01T15:36:57;11.69;86.99
68556;HTU21D;55544;51.032;5.866;2023-04-01T16:00:27;11.49;87.48
68556;HTU21D;55544;51.032;5.866;2023-04-01T16:03:18;11.55;87.57
68556;HTU21D;55544;51.032;5.866;2023-04-01T16:05:55;11.56;87.99
68556;HTU21D;55544;51.032;5.866;2023-04-01T16:08:49;11.61;87.48
68556;HTU21D;55544;51.032;5.866;2023-04-01T16:17:11;11.59;87.96
68556;HTU21D;55544;51.032;5.866;2023-04-01T16:25:40;11.58;87.44
68556;HTU21D;55544;51.032;5.866;2023-04-01T16:33:51;11.47;87.64
68556;HTU21D;55544;51.032;5.866;2023-04-01T16:44:54;11.37;88.15
68556;HTU21D;55544;51.032;5.866;2023-04-01T16:47:30;11.39;88.12
68556;HTU21D;55544;51.032;5.866;2023-04-01T16:55:51;11.29;88.25
68556;HTU21D;55544;51.032;5.866;2023-04-01T16:58:35;11.29;88.30
68556;HTU21D;55544;51.032;5.866;2023-04-01T17:01:29;11.28;87.98
68556;HTU21D;55544;51.032;5.866;2023-04-01T17:04:11;11.25;88.51
68556;HTU21D;55544;51.032;5.866;2023-04-01T17:06:50;11.29;88.28
68556;HTU21D;55544;51.032;5.866;2023-04-01T17:09:35;11.32;88.02
68556;HTU21D;55544;51.032;5.866;2023-04-01T17:12:34;11.24;88.24
68556;HTU21D;55544;51.032;5.866;2023-04-01T17:20:10;11.25;88.24
68556;HTU21D;55544;51.032;5.866;2023-04-01T17:36:18;11.23;88.47
68556;HTU21D;55544;51.032;5.866;2023-04-01T17:42:04;11.18;88.27
68556;HTU21D;55544;51.032;5.866;2023-04-01T17:44:40;11.13;87.92
68556;HTU21D;55544;51.032;5.866;2023-04-01T17:50:30;10.99;88.18
68556;HTU21D;55544;51.032;5.866;2023-04-01T17:58:45;11.01;88.35
68556;HTU21D;55544;51.032;5.866;2023-04-01T18:01:39;10.99;88.51
68556;HTU21D;55544;51.032;5.866;2023-04-01T18:07:12;11.00;88.44
68556;HTU21D;55544;51.032;5.866;2023-04-01T18:20:47;10.90;88.80
68556;HTU21D;55544;51.032;5.866;2023-04-01T18:23:35;10.90;89.20
68556;HTU21D;55544;51.032;5.866;2023-04-01T18:26:18;10.97;88.70
68556;HTU21D;55544;51.032;5.866;2023-04-01T18:28:52;10.89;88.95
68556;HTU21D;55544;51.032;5.866;2023-04-01T18:31:24;10.88;88.83
68556;HTU21D;55544;51.032;5.866;2023-04-01T18:36:53;10.82;89.31
68556;HTU21D;55544;51.032;5.866;2023-04-01T18:39:36;10.84;89.33
68556;HTU21D;55544;51.032;5.866;2023-04-01T18:45:27;10.87;89.15
68556;HTU21D;55544;51.032;5.866;2023-04-01T18:53:49;10.79;89.41
68556;HTU21D;55544;51.032;5.866;2023-04-01T18:56:32;10.83;89.35
68556;HTU21D;55544;51.032;5.866;2023-04-01T19:01:48;10.81;89.35
68556;HTU21D;55544;51.032;5.866;2023-04-01T19:04:37;10.81;89.22
68556;HTU21D;55544;51.032;5.866;2023-04-01T19:10:15;10.82;89.27
68556;HTU21D;55544;51.032;5.866;2023-04-01T19:13:06;10.74;89.60
68556;HTU21D;55544;51.032;5.866;2023-04-01T19:21:14;10.72;90.02
68556;HTU21D;55544;51.032;5.866;2023-04-01T19:32:25;10.69;90.59
68556;HTU21D;55544;51.032;5.866;2023-04-01T19:34:58;10.73;91.05
68556;HTU21D;55544;51.032;5.866;2023-04-01T19:38:11;10.82;90.91
68556;HTU21D;55544;51.032;5.866;2023-04-01T19:43:33;11.01;90.31
68556;HTU21D;55544;51.032;5.866;2023-04-01T19:46:16;11.08;89.77
68556;HTU21D;55544;51.032;5.866;2023-04-01T19:48:57;11.13;88.98
68556;HTU21D;55544;51.032;5.866;2023-04-01T19:54:30;11.12;88.99
68556;HTU21D;55544;51.032;5.866;2023-04-01T20:00:48;11.07;89.49
68556;HTU21D;55544;51.032;5.866;2023-04-01T20:05:39;11.16;89.68
68556;HTU21D;55544;51.032;5.866;2023-04-01T20:13:45;11.23;90.04
68556;HTU21D;55544;51.032;5.866;2023-04-01T20:16:14;11.26;90.14
68556;HTU21D;55544;51.032;5.866;2023-04-01T20:18:55;11.31;90.15
68556;HTU21D;55544;51.032;5.866;2023-04-01T20:21:45;11.38;90.05
68556;HTU21D;55544;51.032;5.866;2023-04-01T20:29:54;11.61;89.44
68556;HTU21D;55544;51.032;5.866;2023-04-01T20:35:14;11.70;88.98
68556;HTU21D;55544;51.032;5.866;2023-04-01T20:37:49;11.73;88.69
68556;HTU21D;55544;51.032;5.866;2023-04-01T20:40:32;11.76;88.51
68556;HTU21D;55544;51.032;5.866;2023-04-01T20:45:54;11.81;88.35
68556;HTU21D;55544;51.032;5.866;2023-04-01T20:51:21;11.79;88.06
68556;HTU21D;55544;51.032;5.866;2023-04-01T20:53:53;11.78;87.64
68556;HTU21D;55544;51.032;5.866;2023-04-01T20:56:37;11.71;87.70
68556;HTU21D;55544;51.032;5.866;2023-04-01T20:59:28;11.69;87.72
68556;HTU21D;55544;51.032;5.866;2023-04-01T21:02:27;11.71;87.57
68556;HTU21D;55544;51.032;5.866;2023-04-01T21:13:58;11.76;87.17
68556;HTU21D;55544;51.032;5.866;2023-04-01T21:16:58;11.72;87.06
68556;HTU21D;55544;51.032;5.866;2023-04-01T21:36:24;11.54;86.68
68556;HTU21D;55544;51.032;5.866;2023-04-01T21:47:28;11.44;86.75
68556;HTU21D;55544;51.032;5.866;2023-04-01T21:49:44;11.44;86.92
68556;HTU21D;55544;51.032;5.866;2023-04-01T21:52:45;11.42;86.64
68556;HTU21D;55544;51.032;5.866;2023-04-01T22:07:31;11.31;86.54
68556;HTU21D;55544;51.032;5.866;2023-04-01T22:12:45;11.27;86.36
68556;HTU21D;55544;51.032;5.866;2023-04-01T22:20:44;11.22;86.03
68556;HTU21D;55544;51.032;5.866;2023-04-01T22:23:21;11.24;86.11
68556;HTU21D;55544;51.032;5.866;2023-04-01T22:28:54;11.24;85.86
68556;HTU21D;55544;51.032;5.866;2023-04-01T22:31:40;11.22;85.58
68556;HTU21D;55544;51.032;5.866;2023-04-01T22:34:15;11.17;85.60
68556;HTU21D;55544;51.032;5.866;2023-04-01T22:44:54;11.09;85.27
68556;HTU21D;55544;51.032;5.866;2023-04-01T22:50:30;11.02;85.57
68556;HTU21D;55544;51.032;5.866;2023-04-01T22:56:15;10.95;85.54
68556;HTU21D;55544;51.032;5.866;2023-04-01T22:58:55;10.87;85.60
68556;HTU21D;55544;51.032;5.866;2023-04-01T23:01:33;10.80;85.74
68556;HTU21D;55544;51.032;5.866;2023-04-01T23:04:04;10.75;85.74
68556;HTU21D;55544;51.032;5.866;2023-04-01T23:06:38;10.71;85.55
68556;HTU21D;55544;51.032;5.866;2023-04-01T23:09:19;10.68;85.83
68556;HTU21D;55544;51.032;5.866;2023-04-01T23:11:53;10.63;85.57
68556;HTU21D;55544;51.032;5.866;2023-04-01T23:17:19;10.57;85.71
68556;HTU21D;55544;51.032;5.866;2023-04-01T23:38:36;10.41;85.10
68556;HTU21D;55544;51.032;5.866;2023-04-01T23:41:05;10.39;85.11
68556;HTU21D;55544;51.032;5.866;2023-04-01T23:43:39;10.36;84.90
68556;HTU21D;55544;51.032;5.866;2023-04-01T23:46:07;10.35;84.74
68556;HTU21D;55544;51.032;5.866;2023-04-01T23:48:37;10.30;85.03
68556;HTU21D;55544;51.032;5.866;2023-04-01T23:51:20;10.30;85.00
68556;HTU21D;55544;51.032;5.866;2023-04-01T23:54:17;10.30;85.21
68556;HTU21D;55544;51.032;5.866;2023-04-01T23:56:45;10.27;85.11
68556;HTU21D;55544;51.032;5.866;2023-04-01T23:59:22;10.24;85.19
